Time;durP1;ratioP1;P1;durP2;ratioP2;P2;SDS_P1;SDS_P2;PMS_P1;PMS_P2;Temp;Humidity;BMP_temperature;BMP_pressure;BME280_temperature;BME280_humidity;BME280_pressure;Samples;Min_cycle;Max_cycle;Signal;HPM_P1;HPM_P2
2023/03/15 00:02:12;;;;;;;4.90;0.97;;;;;;;0.32;100.00;99744.91;5025329;28;20279;-86
2023/03/15 00:04:38;;;;;;;6.80;1.35;;;;;;;0.34;100.00;99765.81;5010633;28;20308;-86
2023/03/15 00:07:03;;;;;;;5.57;0.83;;;;;;;0.39;100.00;99768.91;5012655;28;20045;-86
2023/03/15 00:09:28;;;;;;;5.05;0.90;;;;;;;0.43;100.00;99780.84;4995437;28;20311;-85
2023/03/15 00:11:54;;;;;;;4.15;0.98;;;;;;;0.41;100.00;99775.69;5027578;28;20038;-85
2023/03/15 00:14:20;;;;;;;4.80;1.30;;;;;;;0.46;100.00;99782.38;5004981;28;20025;-85
2023/03/15 00:16:46;;;;;;;6.53;1.75;;;;;;;0.49;100.00;99804.00;5012081;28;20368;-85
2023/03/15 00:19:11;;;;;;;;;;;;;;;0.48;100.00;99801.47;5028050;28;20036;-85
2023/03/15 00:21:39;;;;;;;8.27;2.33;;;;;;;0.48;100.00;99819.88;5028098;28;20378;-86
2023/03/15 00:24:04;;;;;;;11.70;2.72;;;;;;;0.45;100.00;99828.00;5028752;28;20033;-85
2023/03/15 00:26:30;;;;;;;7.65;2.30;;;;;;;0.36;100.00;99838.25;5030575;28;20022;-85
2023/03/15 00:28:56;;;;;;;5.82;1.85;;;;;;;0.33;100.00;99848.16;4998610;28;20038;-85
2023/03/15 00:31:24;;;;;;;10.15;2.20;;;;;;;0.31;100.00;99864.03;5011370;28;20125;-85
2023/03/15 00:33:52;;;;;;;6.80;1.95;;;;;;;0.31;100.00;99878.97;5020046;28;20022;-88
2023/03/15 00:36:18;;;;;;;6.35;2.47;;;;;;;0.24;100.00;99889.09;5029691;28;20038;-84
2023/03/15 00:38:44;;;;;;;8.52;1.70;;;;;;;0.19;100.00;99884.19;4997743;28;20482;-85
2023/03/15 00:41:15;;;;;;;8.52;2.08;;;;;;;0.23;100.00;99911.03;5012129;28;20036;-86
2023/03/15 00:43:41;;;;;;;18.40;2.90;;;;;;;0.19;100.00;99915.69;5013049;28;20030;-85
2023/03/15 00:46:07;;;;;;;14.48;2.42;;;;;;;0.23;100.00;99929.41;5013838;28;20060;-85
2023/03/15 00:48:34;;;;;;;8.80;1.42;;;;;;;0.26;100.00;99946.72;5012164;28;20034;-85
2023/03/15 00:51:10;;;;;;;11.07;2.25;;;;;;;0.18;100.00;99927.13;4997127;28;20581;-86
2023/03/15 00:53:38;;;;;;;14.45;2.38;;;;;;;0.17;100.00;99935.97;4996346;28;20030;-86
2023/03/15 00:56:15;;;;;;;7.18;1.70;;;;;;;0.25;100.00;99953.75;5028395;28;20038;-85
2023/03/15 00:58:41;;;;;;;4.03;1.42;;;;;;;0.32;100.00;99970.72;5028444;28;20033;-85
2023/03/15 01:01:28;;;;;;;8.60;1.98;;;;;;;0.29;100.00;99970.97;5028539;28;21110;-86
2023/03/15 01:03:54;;;;;;;12.23;2.38;;;;;;;0.37;100.00;99988.75;4995613;28;20498;-85
2023/03/15 01:06:22;;;;;;;8.60;1.70;;;;;;;0.34;100.00;99999.50;5028663;28;20029;-86
2023/03/15 01:08:48;;;;;;;15.75;1.85;;;;;;;0.22;100.00;99990.75;5011492;28;20069;-86
2023/03/15 01:11:18;;;;;;;4.88;1.80;;;;;;;0.22;100.00;100016.19;5008834;28;20030;-85
2023/03/15 01:13:43;;;;;;;10.30;1.67;;;;;;;0.32;100.00;100051.28;4995790;28;20068;-85
2023/03/15 01:16:11;;;;;;;8.43;1.85;;;;;;;0.17;100.00;100053.28;4995795;28;20076;-86
2023/03/15 01:18:37;;;;;;;10.98;1.80;;;;;;;-0.05;100.00;100041.72;5028104;28;20030;-86
2023/03/15 01:21:05;;;;;;;6.00;1.83;;;;;;;-0.14;100.00;100037.13;5011790;28;20037;-87
2023/03/15 01:23:31;;;;;;;3.95;1.10;;;;;;;-0.17;100.00;100044.38;5028075;28;20038;-86
2023/03/15 01:26:02;;;;;;;4.55;1.95;;;;;;;-0.11;100.00;100063.16;5018818;28;20107;-86
2023/03/15 01:28:28;;;;;;;5.03;1.23;;;;;;;-0.15;100.00;100068.72;5020284;28;20080;-86
2023/03/15 01:30:55;;;;;;;7.70;1.40;;;;;;;-0.20;100.00;100074.31;5011455;28;20030;-86
2023/03/15 01:33:21;;;;;;;4.32;1.00;;;;;;;-0.17;100.00;100086.34;5011796;28;20113;-86
2023/03/15 01:35:48;;;;;;;4.35;1.23;;;;;;;-0.24;100.00;100078.09;5008935;28;20093;-85
2023/03/15 01:38:13;;;;;;;;;;;;;;;-0.23;100.00;100085.03;4995498;28;20032;-86
2023/03/15 01:40:43;;;;;;;6.78;1.02;;;;;;;-0.28;100.00;100089.72;4995163;28;19976;-86
2023/03/15 01:43:18;;;;;;;2.85;1.25;;;;;;;-0.18;100.00;100109.13;4995424;28;20026;-85
2023/03/15 01:46:01;;;;;;;17.10;2.95;;;;;;;-0.24;100.00;100104.31;5028105;28;20406;-86
2023/03/15 01:48:45;;;;;;;4.07;1.25;;;;;;;-0.22;100.00;100097.19;5027326;28;20518;-87
2023/03/15 01:51:21;;;;;;;7.25;1.70;;;;;;;-0.25;100.00;100103.47;5026812;28;20103;-85
2023/03/15 01:53:58;;;;;;;5.57;1.45;;;;;;;-0.34;100.00;100096.25;5027587;28;20096;-86
2023/03/15 01:56:25;;;;;;;7.82;1.65;;;;;;;-0.33;100.00;100095.34;5027762;28;20057;-86
2023/03/15 01:58:52;;;;;;;6.32;2.25;;;;;;;-0.32;100.00;100097.00;5027224;28;20113;-85
2023/03/15 02:01:20;;;;;;;6.40;1.45;;;;;;;-0.36;100.00;100086.84;5011211;28;20527;-87
2023/03/15 02:03:51;;;;;;;14.57;2.10;;;;;;;-0.36;100.00;100099.94;5027364;28;20030;-86
2023/03/15 02:06:19;;;;;;;5.82;2.22;;;;;;;-0.33;100.00;100104.97;4995942;28;20087;-86
2023/03/15 02:09:04;;;;;;;8.15;2.03;;;;;;;-0.33;100.00;100115.47;5026133;28;20883;-86
2023/03/15 02:11:34;;;;;;;7.00;2.53;;;;;;;-0.33;100.00;100120.69;5027204;28;20030;-86
2023/03/15 02:14:01;;;;;;;6.05;2.05;;;;;;;-0.30;100.00;100126.59;5027490;28;20040;-85
2023/03/15 02:16:28;;;;;;;6.97;2.38;;;;;;;-0.27;100.00;100133.41;5025069;28;20026;-87
2023/03/15 02:18:57;;;;;;;10.45;2.72;;;;;;;-0.22;100.00;100139.16;5026277;28;20040;-85
2023/03/15 02:21:34;;;;;;;;;;;;;;;-0.09;100.00;100149.63;4995055;28;20045;-85
2023/03/15 02:24:17;;;;;;;6.15;2.47;;;;;;;-0.13;100.00;100141.13;5027317;28;19928;-85
2023/03/15 02:26:53;;;;;;;10.63;4.15;;;;;;;-0.12;100.00;100134.09;5027235;28;20045;-88
2023/03/15 02:29:20;;;;;;;;;;;;;;;-0.16;100.00;100132.66;5027243;28;20029;-86
2023/03/15 02:31:47;;;;;;;7.97;3.55;;;;;;;-0.12;100.00;100140.16;5010872;28;19921;-87
2023/03/15 02:34:13;;;;;;;8.02;3.20;;;;;;;-0.13;100.00;100137.69;5027043;28;20087;-86
2023/03/15 02:36:39;;;;;;;11.55;3.47;;;;;;;-0.13;100.00;100138.50;5010535;28;20116;-85
2023/03/15 02:39:17;;;;;;;11.20;3.35;;;;;;;-0.17;100.00;100130.97;5010226;28;20116;-85
2023/03/15 02:41:57;;;;;;;12.10;3.08;;;;;;;-0.16;100.00;100128.25;5027087;28;20030;-85
2023/03/15 02:44:35;;;;;;;4.28;1.88;;;;;;;-0.14;100.00;100142.09;5027069;28;20030;-86
2023/03/15 02:47:07;;;;;;;7.75;2.60;;;;;;;-0.15;100.00;100165.81;5027258;28;20030;-85
2023/03/15 02:49:38;;;;;;;6.53;2.05;;;;;;;-0.20;100.00;100176.63;5026060;28;20605;-86
2023/03/15 02:52:05;;;;;;;9.02;2.17;;;;;;;-0.10;100.00;100196.00;5026562;28;20417;-85
2023/03/15 02:54:33;;;;;;;11.40;1.92;;;;;;;-0.07;100.00;100198.44;5026579;28;20025;-85
2023/03/15 02:56:59;;;;;;;7.80;1.80;;;;;;;-0.12;100.00;100192.66;5009043;28;20808;-86
2023/03/15 02:59:24;;;;;;;5.20;1.48;;;;;;;-0.12;100.00;100203.16;5006703;28;20077;-86
2023/03/15 03:01:50;;;;;;;8.75;1.30;;;;;;;-0.15;100.00;100203.38;5010569;28;20030;-86
2023/03/15 03:04:16;;;;;;;9.82;2.85;;;;;;;-0.13;100.00;100217.22;5010102;28;20025;-86
2023/03/15 03:06:42;;;;;;;7.15;1.60;;;;;;;-0.13;100.00;100209.34;5025972;28;20029;-87
2023/03/15 03:09:09;;;;;;;9.32;1.88;;;;;;;-0.13;100.00;100222.47;4985009;28;20029;-85
2023/03/15 03:11:35;;;;;;;10.30;2.08;;;;;;;-0.19;100.00;100225.50;5025681;28;20033;-86
2023/03/15 03:14:00;;;;;;;13.40;2.60;;;;;;;-0.20;100.00;100218.59;5010389;28;20513;-85
2023/03/15 03:16:25;;;;;;;11.10;2.40;;;;;;;-0.18;100.00;100235.09;5010044;28;20030;-85
2023/03/15 03:18:51;;;;;;;11.70;1.75;;;;;;;-0.09;100.00;100244.13;5009457;28;20041;-85
2023/03/15 03:21:17;;;;;;;7.03;1.20;;;;;;;-0.17;100.00;100233.28;5026307;28;20137;-86
2023/03/15 03:23:45;;;;;;;8.32;2.63;;;;;;;-0.13;100.00;100238.22;5025705;28;20076;-87
2023/03/15 03:26:15;;;;;;;9.63;1.77;;;;;;;-0.11;100.00;100241.59;4993165;28;20030;-85
2023/03/15 03:28:44;;;;;;;7.70;1.70;;;;;;;-0.11;100.00;100249.47;5025155;28;20037;-87
2023/03/15 03:31:21;;;;;;;9.57;1.40;;;;;;;-0.07;100.00;100266.69;5006052;28;20057;-87
2023/03/15 03:33:47;;;;;;;13.68;1.48;;;;;;;-0.11;100.00;100262.56;4992970;28;20038;-86
2023/03/15 03:36:13;;;;;;;12.00;2.17;;;;;;;-0.18;100.00;100265.72;5009618;28;20033;-85
2023/03/15 03:38:42;;;;;;;8.43;2.45;;;;;;;-0.28;100.00;100265.50;5025008;28;20043;-85
2023/03/15 03:41:08;;;;;;;11.25;2.20;;;;;;;-0.34;100.00;100264.16;5017417;28;20021;-86
2023/03/15 03:43:34;;;;;;;6.93;1.90;;;;;;;-0.41;100.00;100268.13;4989136;28;20564;-87
2023/03/15 03:46:00;;;;;;;11.25;1.70;;;;;;;-0.40;100.00;100261.09;4992708;28;20033;-85
2023/03/15 03:48:26;;;;;;;12.70;3.03;;;;;;;-0.44;100.00;100250.00;4992224;28;20410;-85
2023/03/15 03:50:51;;;;;;;9.55;2.42;;;;;;;-0.51;100.00;100218.09;5025272;28;20041;-85
2023/03/15 03:53:17;;;;;;;4.93;1.20;;;;;;;-0.46;100.00;100228.28;5025447;28;20034;-88
2023/03/15 03:55:42;;;;;;;6.85;1.55;;;;;;;-0.47;100.00;100242.31;5025580;28;20129;-86
2023/03/15 03:58:08;;;;;;;7.78;1.30;;;;;;;-0.54;100.00;100235.81;5025248;28;20034;-86
2023/03/15 04:00:41;;;;;;;8.30;1.30;;;;;;;-0.57;100.00;100238.63;5008057;28;20837;-86
2023/03/15 04:03:08;;;;;;;7.10;1.30;;;;;;;-0.51;100.00;100246.09;5009151;28;20490;-86
2023/03/15 04:05:36;;;;;;;14.85;3.42;;;;;;;-0.52;100.00;100250.47;5008790;28;20018;-87
2023/03/15 04:08:01;;;;;;;5.20;1.02;;;;;;;-0.57;100.00;100246.50;5008689;28;20816;-89
2023/03/15 04:10:33;;;;;;;5.05;1.75;;;;;;;-0.46;100.00;100257.13;5008786;28;20034;-86
2023/03/15 04:13:00;;;;;;;4.55;1.88;;;;;;;-0.54;100.00;100273.38;5008026;28;20042;-85
2023/03/15 04:15:25;;;;;;;8.02;1.48;;;;;;;-0.57;100.00;100278.81;5010369;28;20538;-85
2023/03/15 04:17:54;;;;;;;3.15;1.35;;;;;;;-0.62;100.00;100275.66;4992490;28;20097;-86
2023/03/15 04:20:25;;;;;;;5.03;0.93;;;;;;;-0.66;100.00;100276.78;5025302;28;20026;-86
2023/03/15 04:22:51;;;;;;;4.10;1.60;;;;;;;-0.69;100.00;100282.25;5010354;28;20030;-86
2023/03/15 04:25:40;;;;;;;9.68;1.50;;;;;;;-0.65;100.00;100287.19;5020703;28;20201;-87
2023/03/15 04:28:21;;;;;;;6.03;1.50;;;;;;;-0.65;100.00;100302.91;5018932;28;20026;-88
2023/03/15 04:30:57;;;;;;;4.60;1.70;;;;;;;-0.71;100.00;100305.09;4994364;28;20041;-86
2023/03/15 04:33:43;;;;;;;6.60;1.58;;;;;;;-0.66;100.00;100310.88;5022313;28;20042;-86
2023/03/15 04:36:24;;;;;;;6.00;1.52;;;;;;;-0.65;100.00;100312.56;4994900;28;20030;-86
2023/03/15 04:39:04;;;;;;;3.70;1.23;;;;;;;-0.61;100.00;100324.53;5008971;28;20095;-86
2023/03/15 04:41:42;;;;;;;4.93;1.80;;;;;;;-0.61;100.00;100327.16;4994502;28;20113;-87
2023/03/15 04:44:18;;;;;;;7.32;2.00;;;;;;;-0.67;100.00;100340.69;4994264;28;20097;-86
2023/03/15 04:47:00;;;;;;;8.25;1.40;;;;;;;-0.65;100.00;100336.19;5022786;28;20533;-84
2023/03/15 04:49:38;;;;;;;12.35;2.20;;;;;;;-0.65;100.00;100351.91;5024379;28;20438;-85
2023/03/15 04:52:22;;;;;;;13.00;2.42;;;;;;;-0.68;100.00;100342.47;4995712;28;20034;-84
2023/03/15 04:55:08;;;;;;;4.68;2.00;;;;;;;-0.65;100.00;100344.88;5022994;28;20084;-86
2023/03/15 04:57:53;;;;;;;8.32;1.60;;;;;;;-0.76;100.00;100349.13;5006642;28;20057;-85
2023/03/15 05:00:32;;;;;;;6.50;3.00;;;;;;;-0.79;100.00;100346.72;5024850;28;20034;-85
2023/03/15 05:03:14;;;;;;;12.80;3.03;;;;;;;-0.85;100.00;100348.78;4987815;28;20065;-85
2023/03/15 05:05:46;;;;;;;11.73;2.42;;;;;;;-0.83;100.00;100353.09;4992853;28;20060;-83
2023/03/15 05:08:38;;;;;;;7.72;2.63;;;;;;;-0.75;100.00;100358.66;5020964;28;20034;-85
2023/03/15 05:11:33;;;;;;;6.63;2.55;;;;;;;-0.80;100.00;100368.63;4984932;28;20057;-83
2023/03/15 05:14:14;;;;;;;10.95;4.30;;;;;;;-0.90;100.00;100363.97;5012542;28;20030;-83
2023/03/15 05:16:47;;;;;;;11.77;3.40;;;;;;;-0.89;100.00;100370.91;5028965;28;20092;-83
2023/03/15 05:19:26;;;;;;;8.57;3.38;;;;;;;-0.88;100.00;100367.34;4999684;28;20026;-81
2023/03/15 05:22:14;;;;;;;12.60;3.70;;;;;;;-0.81;100.00;100385.28;4990600;28;20045;-84
2023/03/15 05:25:09;;;;;;;13.60;3.85;;;;;;;-0.83;100.00;100381.94;5031153;28;20080;-83
2023/03/15 05:27:54;;;;;;;14.93;5.03;;;;;;;-0.85;100.00;100376.78;5018019;28;20029;-83
2023/03/15 05:30:47;;;;;;;14.35;4.95;;;;;;;-0.94;100.00;100383.44;5017312;28;20149;-82
2023/03/15 05:33:25;;;;;;;13.27;3.92;;;;;;;-0.88;100.00;100395.31;5012334;28;20030;-81
2023/03/15 05:36:14;;;;;;;11.45;3.95;;;;;;;-0.90;100.00;100408.53;5014705;28;20486;-82
2023/03/15 05:39:02;;;;;;;9.40;4.35;;;;;;;-0.92;100.00;100413.00;5017958;28;20081;-86
2023/03/15 05:42:00;;;;;;;14.40;4.05;;;;;;;-0.93;100.00;100416.59;4993494;28;20100;-83
2023/03/15 05:44:37;;;;;;;12.93;4.20;;;;;;;-0.94;100.00;100424.53;5028348;28;20040;-84
2023/03/15 05:47:18;;;;;;;7.18;4.10;;;;;;;-0.85;100.00;100437.06;5008825;28;20045;-87
2023/03/15 05:50:03;;;;;;;9.48;4.60;;;;;;;-0.82;100.00;100442.13;5011709;28;20052;-85
2023/03/15 05:52:44;;;;;;;10.75;3.38;;;;;;;-0.83;100.00;100445.69;5026676;28;20092;-85
2023/03/15 05:55:39;;;;;;;9.55;3.65;;;;;;;-0.74;100.00;100452.13;5031153;28;20052;-86
2023/03/15 05:58:36;;;;;;;12.00;3.20;;;;;;;-0.72;100.00;100451.09;5012475;28;20061;-86
2023/03/15 06:01:20;;;;;;;12.60;3.33;;;;;;;-0.68;100.00;100454.34;5001839;28;20026;-86
2023/03/15 06:04:14;;;;;;;12.02;3.53;;;;;;;-0.69;100.00;100460.53;5025389;28;20026;-85
2023/03/15 06:06:40;;;;;;;8.93;2.35;;;;;;;-0.78;100.00;100455.88;5028627;28;20495;-86
2023/03/15 06:09:07;;;;;;;11.07;2.65;;;;;;;-0.78;100.00;100455.88;5021190;28;20029;-85
2023/03/15 06:11:33;;;;;;;7.05;2.10;;;;;;;-0.79;100.00;100454.19;5012009;28;20025;-86
2023/03/15 06:14:00;;;;;;;6.53;2.50;;;;;;;-0.67;100.00;100463.91;5027800;28;20041;-85
2023/03/15 06:16:45;;;;;;;10.18;3.20;;;;;;;-0.71;100.00;100450.13;5014209;28;20042;-86
2023/03/15 06:19:11;;;;;;;6.90;3.38;;;;;;;-0.53;100.00;100456.00;4997845;28;20033;-84
2023/03/15 06:21:36;;;;;;;4.25;2.00;;;;;;;-0.27;100.00;100477.91;5000986;28;20034;-82
2023/03/15 06:24:08;;;;;;;10.63;2.53;;;;;;;-0.02;100.00;100486.81;5025312;28;20026;-85
2023/03/15 06:26:33;;;;;;;9.18;3.17;;;;;;;0.03;100.00;100478.66;5032823;28;20032;-85
2023/03/15 06:29:02;;;;;;;9.68;2.88;;;;;;;0.12;100.00;100478.03;5016377;28;20442;-82
2023/03/15 06:31:27;;;;;;;7.88;2.10;;;;;;;0.43;100.00;100483.84;5011361;28;20038;-86
2023/03/15 06:34:00;;;;;;;4.82;1.95;;;;;;;0.33;100.00;100481.00;5011396;28;20042;-86
2023/03/15 06:36:26;;;;;;;6.40;2.50;;;;;;;0.39;100.00;100478.78;5011909;28;20121;-87
2023/03/15 06:38:53;;;;;;;5.68;1.90;;;;;;;0.32;100.00;100472.28;5010924;28;20038;-86
2023/03/15 06:41:20;;;;;;;6.97;3.63;;;;;;;0.24;100.00;100471.97;5026855;28;20052;-86
2023/03/15 06:43:46;;;;;;;9.00;2.83;;;;;;;0.20;100.00;100471.31;5011125;28;20117;-85
2023/03/15 06:46:12;;;;;;;6.63;2.40;;;;;;;0.09;100.00;100449.34;5028532;28;20538;-85
2023/03/15 06:48:38;;;;;;;7.47;2.55;;;;;;;-0.24;100.00;100434.88;5027701;28;20045;-88
2023/03/15 06:51:05;;;;;;;14.07;3.03;;;;;;;-0.24;100.00;100432.25;5012527;28;20034;-89
2023/03/15 06:53:31;;;;;;;10.30;3.95;;;;;;;-0.38;100.00;100437.56;5030781;28;20112;-88
2023/03/15 06:55:57;;;;;;;;;;;;;;;-0.30;100.00;100458.91;4997631;28;20033;-88
2023/03/15 06:58:22;;;;;;;8.77;3.38;;;;;;;-0.29;100.00;100463.22;5009818;28;19913;-88
2023/03/15 07:00:48;;;;;;;15.80;4.20;;;;;;;-0.28;100.00;100459.63;5029187;28;20061;-88
2023/03/15 07:03:14;;;;;;;14.73;4.30;;;;;;;-0.36;100.00;100462.78;4996311;28;20034;-88
2023/03/15 07:05:39;;;;;;;9.60;4.07;;;;;;;-0.24;100.00;100471.63;5029436;28;20038;-87
2023/03/15 07:08:05;;;;;;;12.27;4.57;;;;;;;-0.07;100.00;100487.13;5012535;28;20080;-87
2023/03/15 07:10:31;;;;;;;;;;;;;;;-0.06;100.00;100486.16;4995925;28;20595;-87
2023/03/15 07:12:56;;;;;;;10.23;4.70;;;;;;;-0.13;100.00;100478.81;5028237;28;20012;-88
2023/03/15 07:15:22;;;;;;;11.10;4.38;;;;;;;-0.04;100.00;100481.66;5029719;28;20045;-89
2023/03/15 07:17:47;;;;;;;11.80;4.47;;;;;;;0.40;100.00;100491.00;5011436;28;20041;-87
2023/03/15 07:20:13;;;;;;;11.30;4.28;;;;;;;0.73;100.00;100489.66;5017567;28;20041;-84
2023/03/15 07:22:38;;;;;;;10.35;4.68;;;;;;;1.16;100.00;100496.31;5008588;28;20092;-86
2023/03/15 07:25:06;;;;;;;10.45;3.60;;;;;;;1.26;100.00;100481.56;4995179;28;20570;-87
2023/03/15 07:27:31;;;;;;;13.90;4.20;;;;;;;1.89;100.00;100480.47;5027422;28;20034;-86
2023/03/15 07:29:57;;;;;;;8.48;3.38;;;;;;;2.35;100.00;100478.84;5010725;28;20505;-86
2023/03/15 07:32:22;;;;;;;7.90;3.40;;;;;;;2.09;100.00;100434.25;5011086;28;20644;-84
2023/03/15 07:34:48;;;;;;;14.35;3.20;;;;;;;2.52;100.00;100417.78;5000935;28;20632;-87
2023/03/15 07:37:13;;;;;;;9.48;3.05;;;;;;;2.56;100.00;100378.03;4992307;28;20038;-89
2023/03/15 07:39:40;;;;;;;8.20;3.25;;;;;;;2.91;100.00;100348.88;5026871;28;20064;-88
2023/03/15 07:42:06;;;;;;;8.18;4.32;;;;;;;3.18;100.00;100324.69;5027385;28;20014;-87
2023/03/15 07:44:38;;;;;;;6.93;2.83;;;;;;;3.35;100.00;100281.94;5006638;28;20034;-86
2023/03/15 07:47:03;;;;;;;5.00;2.60;;;;;;;3.00;100.00;100218.91;5009861;28;20112;-88
2023/03/15 07:49:30;;;;;;;6.37;3.40;;;;;;;3.00;100.00;100191.69;5010269;28;20030;-88
2023/03/15 07:51:55;;;;;;;8.75;3.10;;;;;;;3.24;100.00;100179.09;5027233;28;20383;-88
2023/03/15 07:54:21;;;;;;;8.27;2.63;;;;;;;3.13;100.00;100139.59;4996067;28;20101;-88
2023/03/15 07:56:46;;;;;;;4.17;2.50;;;;;;;3.01;100.00;100115.09;4993302;28;20317;-86
2023/03/15 07:59:13;;;;;;;6.93;3.03;;;;;;;3.02;100.00;100111.50;4986567;28;20029;-87
2023/03/15 08:01:38;;;;;;;6.80;2.42;;;;;;;3.24;100.00;100105.22;5027142;28;20113;-88
2023/03/15 08:04:03;;;;;;;6.27;2.97;;;;;;;3.46;100.00;100083.09;5011694;28;20486;-88
2023/03/15 08:06:30;;;;;;;3.90;2.47;;;;;;;3.38;100.00;100044.19;5010946;28;20100;-87
2023/03/15 08:08:55;;;;;;;5.65;2.38;;;;;;;3.05;100.00;100010.19;5009255;28;20037;-87
2023/03/15 08:11:21;;;;;;;7.53;2.60;;;;;;;2.53;100.00;99982.03;4992974;28;20041;-86
2023/03/15 08:13:46;;;;;;;4.77;3.13;;;;;;;2.91;100.00;100050.91;5025376;28;20517;-87
2023/03/15 08:16:12;;;;;;;5.18;2.65;;;;;;;3.15;100.00;100063.81;4993597;28;20042;-87
2023/03/15 08:18:37;;;;;;;4.80;2.53;;;;;;;3.97;100.00;100065.47;5025313;28;20068;-87
2023/03/15 08:21:03;;;;;;;6.47;2.77;;;;;;;4.08;100.00;99935.91;5018852;28;20117;-87
2023/03/15 08:23:28;;;;;;;5.05;1.90;;;;;;;4.44;100.00;99930.84;5010835;28;20644;-89
2023/03/15 08:25:54;;;;;;;3.70;1.90;;;;;;;5.32;100.00;99862.50;5048110;28;20102;-89
2023/03/15 08:28:20;;;;;;;8.40;2.50;;;;;;;5.08;100.00;99570.22;5029714;28;20018;-89
2023/03/15 08:30:45;;;;;;;4.30;2.33;;;;;;;5.93;100.00;99686.84;5014481;28;20477;-88
2023/03/15 08:33:11;;;;;;;4.83;2.10;;;;;;;6.91;100.00;99635.09;5004007;28;20280;-88
2023/03/15 08:35:37;;;;;;;7.38;1.83;;;;;;;7.25;100.00;99411.88;5017973;28;20371;-89
2023/03/15 08:38:02;;;;;;;4.10;2.17;;;;;;;7.71;100.00;99172.03;5012253;28;20041;-87
2023/03/15 08:40:29;;;;;;;5.93;1.65;;;;;;;8.42;100.00;98986.22;4998613;28;20026;-86
2023/03/15 08:42:55;;;;;;;3.22;1.45;;;;;;;7.55;100.00;98632.09;5012900;28;20030;-86
2023/03/15 08:45:25;;;;;;;5.47;1.35;;;;;;;7.80;100.00;98714.81;5027721;28;20026;-89
2023/03/15 08:47:58;;;;;;;5.10;2.03;;;;;;;6.60;100.00;98479.56;5031127;28;20049;-86
2023/03/15 08:50:25;;;;;;;5.47;1.00;;;;;;;6.74;100.00;98618.38;5032150;28;20040;-87
2023/03/15 08:52:51;;;;;;;5.35;1.15;;;;;;;5.83;100.00;98620.59;5015854;28;20132;-85
2023/03/15 08:55:16;;;;;;;4.82;1.40;;;;;;;5.13;100.00;98711.75;5031035;28;20076;-88
2023/03/15 08:57:41;;;;;;;3.13;0.98;;;;;;;4.61;100.00;98877.97;5014514;28;20057;-89
2023/03/15 09:00:08;;;;;;;2.63;1.27;;;;;;;4.28;100.00;98992.63;5010238;28;20046;-88
2023/03/15 09:02:35;;;;;;;4.03;1.50;;;;;;;4.38;100.00;99225.84;4997723;28;20414;-88
2023/03/15 09:05:00;;;;;;;4.03;1.73;;;;;;;3.91;100.00;99258.78;5026870;28;20061;-90
2023/03/15 09:07:26;;;;;;;4.80;1.25;;;;;;;4.32;100.00;99540.88;5031007;28;20041;-88
2023/03/15 09:09:53;;;;;;;4.05;1.27;;;;;;;5.11;100.00;99533.88;5027790;28;20040;-89
2023/03/15 09:12:19;;;;;;;10.38;1.77;;;;;;;6.12;100.00;99557.78;5033656;28;20038;-88
2023/03/15 09:14:44;;;;;;;5.03;1.20;;;;;;;6.46;100.00;99295.19;5033381;28;20038;-88
2023/03/15 09:17:09;;;;;;;7.40;2.23;;;;;;;7.16;100.00;99185.50;5007556;28;20033;-88
2023/03/15 09:19:35;;;;;;;4.30;1.47;;;;;;;6.46;100.00;98923.16;5021560;28;20073;-90
2023/03/15 09:22:01;;;;;;;2.75;1.70;;;;;;;6.24;100.00;98840.88;5016951;28;20109;-88
2023/03/15 09:24:26;;;;;;;10.43;1.65;;;;;;;6.51;100.00;99016.28;5016433;28;20564;-90
2023/03/15 09:26:52;;;;;;;4.60;1.93;;;;;;;6.22;100.00;98925.03;5032188;28;20041;-88
2023/03/15 09:29:17;;;;;;;9.50;2.57;;;;;;;5.72;100.00;98873.44;4999032;28;20095;-89
2023/03/15 09:31:42;;;;;;;10.40;2.07;;;;;;;6.14;100.00;99131.81;5032745;28;20410;-89
2023/03/15 09:34:07;;;;;;;4.73;1.97;;;;;;;6.52;100.00;99253.88;5016374;28;20030;-89
2023/03/15 09:36:33;;;;;;;10.40;2.73;;;;;;;6.97;100.00;99228.41;5014181;28;20057;-89
2023/03/15 09:39:00;;;;;;;5.23;2.27;;;;;;;7.18;100.00;99164.91;5015864;28;20132;-89
2023/03/15 09:41:46;;;;;;;5.15;2.20;;;;;;;6.75;100.00;99108.88;4999745;28;20538;-87
2023/03/15 09:44:28;;;;;;;4.47;2.05;;;;;;;7.70;100.00;99234.97;5031738;28;20037;-89
2023/03/15 09:47:23;;;;;;;4.03;2.13;;;;;;;6.09;100.00;98872.66;5016531;28;20096;-87
2023/03/15 09:50:04;;;;;;;8.30;2.10;;;;;;;5.52;100.00;98947.19;4971187;28;20069;-89
2023/03/15 09:52:42;;;;;;;10.80;2.55;;;;;;;5.92;100.00;99216.31;4978312;28;20041;-88
2023/03/15 09:55:26;;;;;;;6.03;2.03;;;;;;;5.93;100.00;99217.94;4978603;28;20557;-89
2023/03/15 09:57:59;;;;;;;6.57;2.00;;;;;;;5.55;100.00;99115.44;4978513;28;20580;-89
2023/03/15 10:00:42;;;;;;;7.55;1.45;;;;;;;5.26;100.00;99316.09;4977931;28;20816;-88
2023/03/15 10:03:30;;;;;;;7.63;2.47;;;;;;;4.98;100.00;99342.00;4961812;28;20042;-88
2023/03/15 10:06:01;;;;;;;9.68;1.77;;;;;;;4.95;100.00;99453.41;4977978;28;20042;-88
2023/03/15 10:08:26;;;;;;;7.03;2.05;;;;;;;4.67;100.00;99528.63;4977059;28;20151;-88
2023/03/15 10:10:55;;;;;;;8.07;2.40;;;;;;;4.50;100.00;99480.91;4976025;28;20054;-89
2023/03/15 10:13:24;;;;;;;5.45;2.47;;;;;;;4.59;100.00;99612.16;4960490;28;20038;-89
2023/03/15 10:16:14;;;;;;;7.88;3.70;;;;;;;4.84;100.00;99720.78;4960389;28;20049;-89
2023/03/15 10:19:13;;;;;;;3.72;2.60;;;;;;;5.37;100.00;99700.59;4976843;28;20093;-88
2023/03/15 10:22:01;;;;;;;5.25;2.45;;;;;;;5.20;100.00;99556.75;4977367;28;20426;-87
2023/03/15 10:24:49;;;;;;;6.63;2.70;;;;;;;5.44;100.00;99701.63;4977391;28;20034;-88
2023/03/15 10:27:14;;;;;;;6.38;2.05;;;;;;;6.06;100.00;99725.34;5010317;28;20418;-88
2023/03/15 10:29:40;;;;;;;8.00;2.42;;;;;;;5.38;100.00;99377.50;5015236;28;20026;-89
2023/03/15 10:32:17;;;;;;;4.30;2.90;;;;;;;5.80;100.00;99530.16;5014007;28;20038;-89
2023/03/15 10:34:51;;;;;;;6.78;1.85;;;;;;;6.98;100.00;99726.31;4997420;28;20125;-89
2023/03/15 10:37:18;;;;;;;4.03;1.75;;;;;;;7.27;100.00;99401.09;5013645;28;20036;-88
2023/03/15 10:39:48;;;;;;;4.22;2.05;;;;;;;7.77;100.00;99351.97;5013430;28;20394;-88
2023/03/15 10:42:31;;;;;;;5.57;1.40;;;;;;;7.09;100.00;98924.47;5014340;28;20034;-88
2023/03/15 10:44:59;;;;;;;10.02;1.95;;;;;;;7.03;100.00;99075.66;5013823;28;20034;-88
2023/03/15 10:47:26;;;;;;;13.45;2.13;;;;;;;6.44;100.00;98994.09;5013907;28;20117;-88
2023/03/15 10:50:00;;;;;;;6.03;2.22;;;;;;;6.06;100.00;99211.31;5004705;28;20490;-89
2023/03/15 10:52:36;;;;;;;4.18;1.60;;;;;;;6.74;100.00;99478.59;5011378;28;20030;-89
2023/03/15 10:55:10;;;;;;;6.30;1.77;;;;;;;7.16;100.00;99583.66;5029288;28;20044;-89
2023/03/15 10:57:39;;;;;;;3.70;1.80;;;;;;;6.50;100.00;99316.84;5029728;28;20618;-88
2023/03/15 11:00:22;;;;;;;6.72;1.70;;;;;;;7.18;100.00;99564.88;5011891;28;20021;-89
2023/03/15 11:02:50;;;;;;;5.47;1.33;;;;;;;8.36;100.00;99644.63;5012612;28;20672;-88
2023/03/15 11:05:17;;;;;;;4.43;1.15;;;;;;;8.56;100.00;99199.97;5028683;28;20918;-90
2023/03/15 11:07:54;;;;;;;7.97;1.30;;;;;;;9.42;100.00;99195.47;5028774;28;20021;-89
2023/03/15 11:10:22;;;;;;;5.15;1.52;;;;;;;8.73;99.32;98721.63;5027876;28;20056;-89
2023/03/15 11:12:48;;;;;;;5.25;1.45;;;;;;;8.65;97.46;98592.28;5012141;28;20048;-88
2023/03/15 11:15:15;;;;;;;4.10;1.40;;;;;;;9.44;96.14;98740.63;5012284;28;20034;-86
2023/03/15 11:17:46;;;;;;;5.13;1.20;;;;;;;10.05;93.71;98642.75;5028248;28;20053;-87
2023/03/15 11:20:30;;;;;;;1.35;0.82;;;;;;;9.39;87.41;97890.06;4988315;28;20030;-86
2023/03/15 11:22:57;;;;;;;2.78;0.80;;;;;;;8.77;86.56;97720.75;5028499;28;20040;-85
2023/03/15 11:25:27;;;;;;;3.13;0.98;;;;;;;8.94;86.17;97850.50;5027079;28;20121;-85
2023/03/15 11:27:53;;;;;;;5.88;1.30;;;;;;;8.78;86.89;97987.56;5010084;28;20044;-86
2023/03/15 11:30:28;;;;;;;7.75;1.10;;;;;;;7.84;84.56;97498.63;4995142;28;20030;-88
2023/03/15 11:32:54;;;;;;;5.07;1.23;;;;;;;7.71;85.75;97714.72;5025608;28;20084;-87
2023/03/15 11:35:31;;;;;;;7.13;1.00;;;;;;;7.29;86.42;97700.38;5025834;28;20022;-85
2023/03/15 11:38:08;;;;;;;5.00;1.08;;;;;;;7.13;87.68;97906.78;5026323;28;20038;-87
2023/03/15 11:40:38;;;;;;;5.22;1.42;;;;;;;6.98;89.69;98121.13;5026316;28;20026;-87
2023/03/15 11:43:11;;;;;;;6.47;1.27;;;;;;;7.35;88.71;98209.09;5026658;28;20029;-87